createdAt,value
2022-10-02T10:39:43.832Z,18.80
2022-10-02T10:42:44.911Z,18.80
2022-10-02T10:45:54.926Z,18.90
2022-10-02T10:48:48.514Z,19.00
2022-10-02T10:51:35.526Z,19.00
2022-10-02T10:54:40.463Z,19.20
2022-10-02T10:57:16.135Z,19.30
2022-10-02T10:59:48.789Z,19.50
2022-10-02T11:02:36.038Z,19.50
2022-10-02T11:05:15.546Z,19.60
2022-10-02T11:08:19.379Z,19.70
2022-10-02T11:11:07.839Z,19.70
2022-10-02T11:13:44.071Z,19.70
2022-10-02T11:16:49.056Z,19.70
2022-10-02T11:19:21.988Z,19.60
2022-10-02T11:22:15.068Z,19.60
2022-10-02T11:25:00.909Z,19.60
2022-10-02T11:27:57.840Z,19.60
2022-10-02T11:30:40.836Z,19.50
2022-10-02T11:34:05.321Z,19.50
2022-10-02T11:36:43.788Z,19.60
2022-10-02T11:39:52.452Z,19.50
2022-10-02T11:42:32.636Z,19.40
2022-10-02T11:45:37.255Z,19.40
2022-10-02T11:48:32.344Z,19.40
2022-10-02T11:51:31.548Z,19.50
2022-10-02T11:54:17.016Z,19.50
2022-10-02T11:57:05.936Z,19.50
2022-10-02T11:59:55.238Z,19.50
2022-10-02T12:02:53.314Z,19.50
2022-10-02T12:05:54.837Z,19.40
2022-10-02T12:08:36.970Z,19.50
2022-10-02T12:11:23.006Z,19.50
2022-10-02T12:14:08.630Z,19.40
2022-10-02T12:16:54.179Z,19.40
2022-10-02T12:20:07.471Z,19.30
2022-10-02T12:23:07.727Z,19.30
2022-10-02T12:26:06.097Z,19.20
2022-10-02T12:28:45.937Z,19.20
2022-10-02T12:31:12.788Z,19.20
2022-10-02T12:33:45.484Z,19.20
2022-10-02T12:36:48.808Z,19.20
2022-10-02T12:39:28.243Z,19.20
2022-10-02T12:41:55.272Z,19.10
2022-10-02T12:44:53.494Z,19.20
2022-10-02T12:47:32.368Z,19.20
2022-10-02T12:50:21.957Z,19.20
2022-10-02T12:53:07.369Z,19.30
2022-10-02T12:55:46.286Z,19.40
2022-10-02T12:58:20.436Z,19.30
2022-10-02T13:01:06.101Z,19.30
2022-10-02T13:03:50.714Z,19.20
2022-10-02T13:06:22.825Z,19.30
2022-10-02T13:09:07.748Z,19.30
2022-10-02T13:11:56.013Z,19.50
2022-10-02T13:15:04.607Z,19.80
2022-10-02T13:17:31.584Z,19.80
2022-10-02T13:20:21.066Z,19.90
2022-10-02T13:23:21.967Z,20.10
2022-10-02T13:26:06.940Z,20.20
2022-10-02T13:28:45.808Z,20.30
2022-10-02T13:31:22.398Z,20.40
2022-10-02T13:33:58.376Z,20.60
2022-10-02T13:36:57.262Z,20.70
2022-10-02T13:39:54.141Z,20.70
2022-10-02T13:42:30.014Z,20.80
2022-10-02T13:45:03.759Z,20.90
2022-10-02T13:48:05.956Z,20.90
2022-10-02T13:50:38.130Z,21.00
2022-10-02T13:53:22.792Z,21.00
2022-10-02T13:56:15.540Z,21.00
2022-10-02T13:58:57.998Z,20.90
2022-10-02T14:02:13.879Z,20.90
2022-10-02T14:04:47.854Z,20.90
2022-10-02T14:07:17.482Z,20.90
2022-10-02T14:10:11.052Z,20.70
2022-10-02T14:13:00.460Z,20.60
2022-10-02T14:16:10.595Z,20.40
2022-10-02T14:19:03.463Z,20.30
2022-10-02T14:21:44.792Z,20.20
2022-10-02T14:25:00.074Z,20.20
2022-10-02T14:27:45.750Z,20.10
2022-10-02T14:30:18.827Z,19.90
2022-10-02T14:32:53.028Z,19.80
2022-10-02T14:35:57.861Z,19.60
2022-10-02T14:38:45.140Z,19.60
2022-10-02T14:41:38.459Z,19.50
2022-10-02T14:44:20.783Z,19.50
2022-10-02T14:47:29.012Z,19.40
2022-10-02T14:50:12.670Z,19.30
2022-10-02T14:52:57.520Z,19.30
2022-10-02T14:55:27.348Z,19.30
2022-10-02T14:58:09.147Z,19.30
2022-10-02T15:00:46.253Z,19.30
2022-10-02T15:03:43.929Z,19.30
2022-10-02T15:06:40.293Z,19.20
2022-10-02T15:09:21.645Z,19.10
2022-10-02T15:11:59.198Z,19.00
2022-10-02T15:14:53.027Z,19.00
2022-10-02T15:17:44.420Z,19.00
2022-10-02T15:20:26.365Z,18.90
2022-10-02T15:23:00.326Z,18.90
2022-10-02T15:25:47.791Z,18.90
2022-10-02T15:28:47.389Z,18.80
2022-10-02T15:31:20.428Z,18.80
2022-10-02T15:34:22.813Z,18.80
2022-10-02T15:36:55.726Z,18.70
2022-10-02T15:39:43.690Z,18.70
2022-10-02T15:42:15.976Z,18.60
2022-10-02T15:45:19.710Z,18.60
2022-10-02T15:48:08.205Z,18.50
2022-10-02T15:50:38.069Z,18.40
2022-10-02T15:53:31.817Z,18.30
2022-10-02T15:56:30.268Z,18.30
2022-10-02T15:59:25.107Z,18.20
2022-10-02T16:02:09.580Z,18.10
2022-10-02T16:05:02.918Z,18.00
2022-10-02T16:08:07.253Z,17.90
2022-10-02T16:10:52.221Z,17.90
2022-10-02T16:13:56.694Z,17.80
2022-10-02T16:16:42.491Z,17.80
2022-10-02T16:19:31.221Z,17.80
2022-10-02T16:22:36.703Z,17.60
2022-10-02T16:25:18.424Z,17.60
2022-10-02T16:28:18.594Z,17.50
2022-10-02T16:30:51.853Z,17.50
2022-10-02T16:33:21.106Z,17.40
2022-10-02T16:35:54.198Z,17.40
2022-10-02T16:38:38.253Z,17.30
2022-10-02T16:41:46.469Z,17.30
2022-10-02T16:44:27.984Z,17.20
2022-10-02T16:47:13.212Z,17.10
2022-10-02T16:49:54.196Z,17.10
2022-10-02T16:52:39.934Z,17.10
2022-10-02T16:55:25.168Z,17.00
2022-10-02T16:57:58.313Z,17.00
2022-10-02T17:00:32.154Z,16.90
2022-10-02T17:03:13.015Z,16.90
2022-10-02T17:06:03.772Z,16.80
2022-10-02T17:09:05.706Z,16.80
2022-10-02T17:11:45.367Z,16.70
2022-10-02T17:14:19.756Z,16.70
2022-10-02T17:16:57.906Z,16.60
2022-10-02T17:19:46.012Z,16.60
2022-10-02T17:22:34.859Z,16.50
2022-10-02T17:25:05.336Z,16.50
2022-10-02T17:27:54.411Z,16.40
2022-10-02T17:30:24.401Z,16.30
2022-10-02T17:33:15.913Z,16.30
2022-10-02T17:35:54.930Z,16.20
2022-10-02T17:38:24.236Z,16.20
2022-10-02T17:41:20.392Z,16.10
2022-10-02T17:44:11.260Z,16.10
2022-10-02T17:47:15.513Z,16.10
2022-10-02T17:50:07.209Z,16.00
2022-10-02T17:53:15.659Z,15.90
2022-10-02T17:56:30.673Z,15.90
2022-10-02T17:59:19.981Z,15.80
2022-10-02T18:02:08.668Z,15.70
2022-10-02T18:04:51.135Z,15.70
2022-10-02T18:07:44.328Z,15.60
2022-10-02T18:10:15.554Z,15.60
2022-10-02T18:12:53.525Z,15.50
2022-10-02T18:15:26.469Z,15.50
2022-10-02T18:18:27.553Z,15.50
2022-10-02T18:21:16.563Z,15.40
2022-10-02T18:24:10.487Z,15.40
2022-10-02T18:27:05.146Z,15.30
2022-10-02T18:29:59.899Z,15.30
2022-10-02T18:32:27.017Z,15.20
2022-10-02T18:35:15.245Z,15.20
2022-10-02T18:38:21.381Z,15.10
2022-10-02T18:41:14.604Z,15.10
2022-10-02T18:44:03.031Z,15.00
2022-10-02T18:46:41.781Z,14.90
2022-10-02T18:49:17.184Z,14.90
2022-10-02T18:51:58.800Z,14.90
2022-10-02T18:54:58.358Z,14.80
2022-10-02T18:57:42.076Z,14.90
2022-10-02T19:00:22.345Z,14.80
2022-10-02T19:03:27.697Z,14.80
2022-10-02T19:06:04.233Z,14.80
2022-10-02T19:08:54.929Z,14.70
2022-10-02T19:11:28.391Z,14.70
2022-10-02T19:13:55.625Z,14.60
2022-10-02T19:16:25.508Z,14.60
2022-10-02T19:19:21.737Z,14.50
2022-10-02T19:21:48.935Z,14.60
2022-10-02T19:24:19.892Z,14.50
2022-10-02T19:26:52.418Z,14.50
2022-10-02T19:29:36.755Z,14.50
2022-10-02T19:32:20.414Z,14.40
2022-10-02T19:34:51.366Z,14.40
2022-10-02T19:37:18.905Z,14.40
2022-10-02T19:39:55.308Z,14.40
2022-10-02T19:42:26.645Z,14.40
2022-10-02T19:45:07.792Z,14.40
2022-10-02T19:47:45.735Z,14.30
2022-10-02T19:50:28.820Z,14.30
2022-10-02T19:53:02.724Z,14.30
2022-10-02T19:55:35.960Z,14.30
2022-10-02T19:58:25.675Z,14.30
2022-10-02T20:00:53.934Z,14.20
2022-10-02T20:03:23.937Z,14.20
2022-10-02T20:05:58.691Z,14.20
2022-10-02T20:08:37.740Z,14.20
2022-10-02T20:11:19.019Z,14.20
2022-10-02T20:13:56.254Z,14.20
2022-10-02T20:16:44.100Z,14.20
2022-10-02T20:19:23.270Z,14.20
2022-10-02T20:21:55.091Z,14.30
2022-10-02T20:24:35.808Z,14.30
2022-10-02T20:27:11.635Z,14.30
2022-10-02T20:29:46.905Z,14.30
2022-10-02T20:32:34.853Z,14.30
2022-10-02T20:35:15.729Z,14.30
2022-10-02T20:37:45.757Z,14.30
2022-10-02T20:40:26.086Z,14.20
2022-10-02T20:43:13.193Z,14.20
2022-10-02T20:46:16.697Z,14.20
2022-10-02T20:49:07.016Z,14.20
2022-10-02T20:51:52.806Z,14.20
2022-10-02T20:54:32.541Z,14.20
2022-10-02T20:57:14.844Z,14.10
2022-10-02T21:00:07.067Z,14.10
2022-10-02T21:02:55.068Z,14.10
2022-10-02T21:05:43.106Z,14.10
2022-10-02T21:08:18.911Z,14.10
2022-10-02T21:11:14.818Z,14.00
2022-10-02T21:14:09.659Z,14.00
2022-10-02T21:17:06.177Z,14.00
2022-10-02T21:20:02.173Z,13.90
2022-10-02T21:23:03.235Z,13.90
2022-10-02T21:26:05.615Z,13.90
2022-10-02T21:28:47.809Z,13.80
2022-10-02T21:31:34.782Z,13.80
2022-10-02T21:34:14.268Z,13.80
2022-10-02T21:37:22.896Z,13.80
2022-10-02T21:39:55.417Z,13.70
